Time;durP1;ratioP1;P1;durP2;ratioP2;P2;SDS_P1;SDS_P2;PMS_P1;PMS_P2;Temp;Humidity;BMP_temperature;BMP_pressure;BME280_temperature;BME280_humidity;BME280_pressure;Samples;Min_cycle;Max_cycle;Signal;HPM_P1;HPM_P2
2021/08/22 00:00:46;;;;;;;29.80;20.27;;;;;;;;;;4284245;33;20199;-79
2021/08/22 00:03:53;;;;;;;27.90;18.85;;;;;;;;;;4280081;33;20503;-79
2021/08/22 00:06:45;;;;;;;31.45;19.87;;;;;;;;;;4285216;33;20184;-79
2021/08/22 00:25:40;;;;;;;40.72;27.42;;;;;;;;;;4209168;34;20151;-80
2021/08/22 00:28:29;;;;;;;36.25;22.73;;;;;;;;;;4223157;33;20229;-79
2021/08/22 00:31:07;;;;;;;;;;;;;;;;;;;;;
2021/08/22 00:33:56;;;;;;;38.38;25.27;;;;;;;;;;4284960;33;20164;-80
2021/08/22 00:36:43;;;;;;;36.28;23.60;;;;;;;;;;4311216;33;20167;-80
2021/08/22 00:46:00;;;;;;;;;;;;;;;;;;;;;
2021/08/22 00:49:23;;;;;;;36.78;22.33;;;;;;;;;;4270231;33;20232;-80
2021/08/22 00:52:17;;;;;;;37.30;21.02;;;;;;;;;;4262817;33;20177;-79
2021/08/22 00:55:09;;;;;;;32.70;19.98;;;;;;;;;;4212148;34;20194;-79
2021/08/22 00:57:44;;;;;;;32.22;22.02;;;;;;;;;;4214375;34;20195;-80
2021/08/22 01:00:37;;;;;;;37.58;22.48;;;;;;;;;;4214402;34;20223;-80
2021/08/22 01:03:04;;;;;;;40.63;23.25;;;;;;;;;;4199410;34;20214;-80
2021/08/22 01:05:48;;;;;;;37.10;21.00;;;;;;;;;;4253235;33;20198;-81
2021/08/22 01:08:16;;;;;;;36.45;24.45;;;;;;;;;;4313681;33;20180;-80
2021/08/22 01:10:44;;;;;;;34.25;20.27;;;;;;;;;;4313953;33;20164;-80
2021/08/22 01:13:16;;;;;;;35.30;22.60;;;;;;;;;;4301180;33;20183;-80
2021/08/22 01:15:44;;;;;;;34.08;23.38;;;;;;;;;;4301840;33;20323;-80
2021/08/22 01:18:15;;;;;;;32.67;21.58;;;;;;;;;;4301381;33;20480;-80
2021/08/22 01:21:15;;;;;;;33.53;21.35;;;;;;;;;;4301980;33;20152;-80
2021/08/22 01:23:48;;;;;;;31.58;21.08;;;;;;;;;;4244618;33;20237;-80
2021/08/22 01:26:15;;;;;;;27.40;19.00;;;;;;;;;;4292624;33;20180;-81
2021/08/22 01:28:42;;;;;;;30.95;21.02;;;;;;;;;;4330413;33;20164;-81
2021/08/22 01:31:10;;;;;;;34.63;23.45;;;;;;;;;;4344307;33;20163;-80
2021/08/22 01:33:37;;;;;;;34.38;24.23;;;;;;;;;;4331416;33;20531;-81
2021/08/22 01:36:17;;;;;;;;;;;;;;;;;;;;;
2021/08/22 01:38:42;;;;;;;39.85;25.30;;;;;;;;;;4347959;33;20477;-80
2021/08/22 01:41:11;;;;;;;40.08;28.12;;;;;;;;;;4334845;33;20152;-80
2021/08/22 01:43:36;;;;;;;28.77;20.67;;;;;;;;;;4346360;33;20178;-81
2021/08/22 01:46:02;;;;;;;34.13;21.55;;;;;;;;;;4334060;33;20159;-81
2021/08/22 01:48:27;;;;;;;26.58;17.37;;;;;;;;;;4346143;33;20202;-81
2021/08/22 01:50:59;;;;;;;28.48;17.87;;;;;;;;;;4346191;33;20159;-81
2021/08/22 01:53:28;;;;;;;23.58;16.25;;;;;;;;;;4346267;33;20260;-81
2021/08/22 01:56:00;;;;;;;18.90;13.20;;;;;;;;;;4333964;33;20148;-81
2021/08/22 01:58:26;;;;;;;18.80;10.82;;;;;;;;;;4333846;33;20201;-81
2021/08/22 02:00:59;;;;;;;19.65;11.18;;;;;;;;;;4346563;33;20156;-81
2021/08/22 02:03:33;;;;;;;16.62;11.18;;;;;;;;;;4346687;33;20559;-81
2021/08/22 02:06:04;;;;;;;18.40;11.45;;;;;;;;;;4333988;33;20155;-81
2021/08/22 02:08:35;;;;;;;16.60;10.45;;;;;;;;;;4346444;33;20152;-81
2021/08/22 02:11:05;;;;;;;15.48;11.35;;;;;;;;;;4346300;33;20186;-80
2021/08/22 02:13:34;;;;;;;15.30;10.77;;;;;;;;;;4345974;33;20155;-81
2021/08/22 02:16:01;;;;;;;11.30;8.35;;;;;;;;;;4346432;33;20159;-81
2021/08/22 02:18:27;;;;;;;13.50;8.57;;;;;;;;;;4346373;33;20186;-81
2021/08/22 02:20:53;;;;;;;14.85;7.78;;;;;;;;;;4345821;33;20159;-80
2021/08/22 02:23:18;;;;;;;13.50;6.47;;;;;;;;;;4345839;33;20158;-81
2021/08/22 02:26:04;;;;;;;;;;;;;;;;;;;;;
2021/08/22 02:28:33;;;;;;;14.10;6.60;;;;;;;;;;4346714;33;20186;-81
2021/08/22 02:31:10;;;;;;;9.90;6.03;;;;;;;;;;4347216;33;20136;-80
2021/08/22 02:33:57;;;;;;;11.88;6.15;;;;;;;;;;4345518;33;20182;-81
2021/08/22 02:36:25;;;;;;;8.55;5.03;;;;;;;;;;4346862;33;20210;-80
2021/08/22 02:38:54;;;;;;;10.60;5.90;;;;;;;;;;4345607;33;20233;-81
2021/08/22 02:41:19;;;;;;;10.35;5.45;;;;;;;;;;4347342;33;20131;-81
2021/08/22 02:43:45;;;;;;;14.87;6.03;;;;;;;;;;4345583;33;20189;-81
2021/08/22 02:46:10;;;;;;;10.73;5.50;;;;;;;;;;4346377;33;20152;-81
2021/08/22 02:48:35;;;;;;;14.93;6.40;;;;;;;;;;4347510;33;20156;-80
2021/08/22 02:51:07;;;;;;;12.88;7.37;;;;;;;;;;4360275;32;20185;-80
2021/08/22 02:53:36;;;;;;;13.68;7.65;;;;;;;;;;4347849;33;20166;-81
2021/08/22 02:56:06;;;;;;;18.20;9.15;;;;;;;;;;4348738;33;20147;-81
2021/08/22 02:58:37;;;;;;;15.00;8.07;;;;;;;;;;4348217;33;20151;-81
2021/08/22 03:01:09;;;;;;;19.40;9.10;;;;;;;;;;4348472;33;20175;-81
2021/08/22 03:03:40;;;;;;;18.15;9.80;;;;;;;;;;4347650;33;20225;-81
2021/08/22 03:06:10;;;;;;;16.27;10.18;;;;;;;;;;4347973;33;20197;-80
2021/08/22 03:08:38;;;;;;;19.65;10.43;;;;;;;;;;4347635;33;20163;-80
2021/08/22 03:11:13;;;;;;;19.62;9.40;;;;;;;;;;4347565;33;20155;-80
2021/08/22 03:13:39;;;;;;;20.02;11.35;;;;;;;;;;4347776;32;20139;-80
2021/08/22 03:16:13;;;;;;;21.67;12.30;;;;;;;;;;4347549;33;20233;-80
2021/08/22 03:18:38;;;;;;;23.08;11.70;;;;;;;;;;4347385;33;20167;-80
2021/08/22 03:21:31;;;;;;;19.40;10.57;;;;;;;;;;4347536;33;20659;-80
2021/08/22 03:23:56;;;;;;;25.92;12.68;;;;;;;;;;4317185;33;20155;-80
2021/08/22 03:26:22;;;;;;;25.20;13.98;;;;;;;;;;4317028;33;20164;-80
2021/08/22 03:29:08;;;;;;;29.45;14.18;;;;;;;;;;4336074;33;20155;-80
2021/08/22 03:31:33;;;;;;;26.70;13.82;;;;;;;;;;4359879;32;20163;-80
2021/08/22 03:34:01;;;;;;;34.65;17.20;;;;;;;;;;4347497;33;20236;-80
2021/08/22 03:36:26;;;;;;;29.90;14.98;;;;;;;;;;4347587;33;20159;-80
2021/08/22 03:38:52;;;;;;;31.33;17.75;;;;;;;;;;4347243;33;20163;-80
2021/08/22 03:41:17;;;;;;;28.70;15.65;;;;;;;;;;4359575;32;20167;-80
2021/08/22 03:43:48;;;;;;;34.75;18.85;;;;;;;;;;4359468;33;20162;-80
2021/08/22 03:46:13;;;;;;;37.45;18.42;;;;;;;;;;4347421;33;20182;-80
2021/08/22 03:48:42;;;;;;;35.58;19.92;;;;;;;;;;4347241;33;20202;-80
2021/08/22 03:54:23;;;;;;;40.65;22.55;;;;;;;;;;4347881;32;20201;-80
2021/08/22 03:56:54;;;;;;;48.95;24.50;;;;;;;;;;4347020;33;20213;-80
2021/08/22 03:59:40;;;;;;;44.35;22.40;;;;;;;;;;4345130;33;20509;-80
2021/08/22 04:02:08;;;;;;;56.50;27.83;;;;;;;;;;4360639;32;20521;-80
2021/08/22 04:04:58;;;;;;;52.20;23.98;;;;;;;;;;4347419;33;20185;-80
2021/08/22 04:07:53;;;;;;;49.28;27.45;;;;;;;;;;4359118;33;20189;-80
2021/08/22 04:10:28;;;;;;;;;;;;;;;;;;;;;
2021/08/22 04:13:06;;;;;;;69.03;31.10;;;;;;;;;;4352562;33;20640;-80
2021/08/22 04:15:42;;;;;;;66.00;33.80;;;;;;;;;;4347336;33;20596;-80
2021/08/22 04:18:24;;;;;;;71.20;33.67;;;;;;;;;;4359600;32;20173;-80
2021/08/22 04:20:54;;;;;;;74.45;36.72;;;;;;;;;;4359160;32;20152;-80
2021/08/22 04:23:20;;;;;;;84.15;39.83;;;;;;;;;;4347805;33;20147;-80
2021/08/22 04:25:45;;;;;;;79.10;33.80;;;;;;;;;;4346655;33;20568;-80
2021/08/22 04:28:21;;;;;;;75.37;35.58;;;;;;;;;;4347109;33;20171;-80
2021/08/22 04:33:35;;;;;;;79.65;36.10;;;;;;;;;;4349668;32;20217;-80
2021/08/22 04:36:08;;;;;;;93.32;38.38;;;;;;;;;;4346514;33;20162;-79
2021/08/22 04:38:36;;;;;;;107.40;43.67;;;;;;;;;;4359559;33;20262;-79
2021/08/22 04:41:01;;;;;;;111.25;47.80;;;;;;;;;;4346461;33;20246;-79
2021/08/22 04:43:29;;;;;;;113.60;48.47;;;;;;;;;;4347104;33;20171;-80
2021/08/22 04:45:55;;;;;;;100.65;45.35;;;;;;;;;;4346535;33;20236;-79
2021/08/22 04:48:31;;;;;;;106.97;45.17;;;;;;;;;;4359207;33;20190;-79
2021/08/22 04:50:56;;;;;;;103.00;41.92;;;;;;;;;;4346595;33;20162;-79
2021/08/22 04:53:33;;;;;;;107.70;47.25;;;;;;;;;;4346459;33;20178;-79
2021/08/22 04:55:59;;;;;;;98.68;44.08;;;;;;;;;;4346728;33;20147;-79
2021/08/22 04:58:34;;;;;;;105.25;43.55;;;;;;;;;;4346380;33;20262;-79
2021/08/22 05:01:03;;;;;;;96.57;40.47;;;;;;;;;;4346902;33;20192;-79
2021/08/22 05:03:49;;;;;;;87.60;39.60;;;;;;;;;;4343530;33;20151;-79
2021/08/22 05:06:16;;;;;;;83.37;39.42;;;;;;;;;;4356111;33;20170;-79
2021/08/22 05:08:54;;;;;;;78.70;39.08;;;;;;;;;;4348499;33;20120;-79
2021/08/22 05:11:39;;;;;;;74.57;37.70;;;;;;;;;;4346863;33;20151;-79
2021/08/22 05:14:36;;;;;;;70.90;34.65;;;;;;;;;;4338528;33;20198;-79
2021/08/22 05:17:13;;;;;;;72.97;34.38;;;;;;;;;;4348246;33;20154;-79
2021/08/22 05:19:42;;;;;;;67.30;34.85;;;;;;;;;;4361603;33;20170;-79
2021/08/22 05:22:08;;;;;;;54.78;33.47;;;;;;;;;;4349054;33;20222;-79
2021/08/22 05:24:33;;;;;;;58.30;33.13;;;;;;;;;;4361832;32;20159;-79
2021/08/22 05:27:05;;;;;;;52.60;28.87;;;;;;;;;;4361455;32;20201;-80
2021/08/22 05:29:32;;;;;;;48.15;26.98;;;;;;;;;;4349085;33;20177;-79
2021/08/22 05:32:08;;;;;;;;;;;;;;;;;;;;;
2021/08/22 05:34:41;;;;;;;43.70;24.65;;;;;;;;;;4359459;33;20468;-79
2021/08/22 05:37:06;;;;;;;46.88;26.52;;;;;;;;;;4361990;32;20158;-80
2021/08/22 05:39:41;;;;;;;52.15;30.52;;;;;;;;;;4348781;33;20190;-80
2021/08/22 05:42:06;;;;;;;46.78;28.85;;;;;;;;;;4349033;33;20216;-80
2021/08/22 05:45:01;;;;;;;44.80;28.38;;;;;;;;;;4348829;33;20167;-81
2021/08/22 05:47:42;;;;;;;46.80;30.33;;;;;;;;;;4306967;33;20235;-80
2021/08/22 05:50:23;;;;;;;42.88;26.87;;;;;;;;;;4358548;33;20201;-80
2021/08/22 05:52:48;;;;;;;45.30;28.30;;;;;;;;;;4359247;32;20152;-80
2021/08/22 05:55:15;;;;;;;44.80;30.25;;;;;;;;;;4358850;32;20205;-81
2021/08/22 05:57:42;;;;;;;41.80;25.45;;;;;;;;;;4358721;32;20246;-80
2021/08/22 06:00:08;;;;;;;41.15;26.67;;;;;;;;;;4358711;32;20655;-80
2021/08/22 06:02:46;;;;;;;43.20;24.45;;;;;;;;;;4358438;32;20164;-80
2021/08/22 06:05:14;;;;;;;52.95;30.75;;;;;;;;;;4358307;33;20620;-80
2021/08/22 06:07:39;;;;;;;39.03;24.40;;;;;;;;;;4358243;33;20574;-80
2021/08/22 06:10:06;;;;;;;45.50;30.25;;;;;;;;;;4358385;32;20168;-81
2021/08/22 06:12:37;;;;;;;44.10;27.70;;;;;;;;;;4358630;32;20182;-80
2021/08/22 06:15:05;;;;;;;46.88;29.98;;;;;;;;;;4358537;32;20185;-80
2021/08/22 06:17:33;;;;;;;43.53;26.62;;;;;;;;;;4358032;33;20167;-81
2021/08/22 06:20:17;;;;;;;;;;;;;;;;;;;;;
2021/08/22 06:22:46;;;;;;;42.38;29.52;;;;;;;;;;4347659;33;20144;-80
2021/08/22 06:25:11;;;;;;;44.88;29.05;;;;;;;;;;4357877;33;20585;-80
2021/08/22 06:27:40;;;;;;;47.28;28.00;;;;;;;;;;4357883;33;20151;-80
2021/08/22 06:30:05;;;;;;;37.35;23.90;;;;;;;;;;4358622;32;20276;-80
2021/08/22 06:32:31;;;;;;;44.88;28.85;;;;;;;;;;4357283;32;20155;-80
2021/08/22 06:34:56;;;;;;;37.03;24.77;;;;;;;;;;4358791;32;20465;-79
2021/08/22 06:37:21;;;;;;;34.83;21.27;;;;;;;;;;4358298;33;20561;-79
2021/08/22 06:39:48;;;;;;;33.17;19.83;;;;;;;;;;4357242;33;20171;-79
2021/08/22 06:42:14;;;;;;;32.58;18.60;;;;;;;;;;4358346;33;20163;-79
2021/08/22 06:44:40;;;;;;;33.80;19.95;;;;;;;;;;4358112;32;20275;-79
2021/08/22 06:47:06;;;;;;;30.10;19.37;;;;;;;;;;4358045;32;20187;-79
2021/08/22 06:49:31;;;;;;;35.40;21.75;;;;;;;;;;4346661;32;20159;-79
2021/08/22 06:52:00;;;;;;;29.55;18.15;;;;;;;;;;4357695;33;20473;-78
2021/08/22 06:54:35;;;;;;;31.90;19.42;;;;;;;;;;4358612;32;20236;-79
2021/08/22 06:57:18;;;;;;;31.73;19.50;;;;;;;;;;4347969;32;20238;-79
2021/08/22 06:59:54;;;;;;;34.55;20.85;;;;;;;;;;4358217;32;20152;-79
2021/08/22 07:02:25;;;;;;;32.33;18.33;;;;;;;;;;4357927;32;20155;-80
2021/08/22 07:05:03;;;;;;;30.75;19.73;;;;;;;;;;4357349;33;20246;-80
2021/08/22 07:07:31;;;;;;;34.53;20.35;;;;;;;;;;4357969;32;20193;-79
2021/08/22 07:09:59;;;;;;;26.02;17.60;;;;;;;;;;4346572;32;20159;-80
2021/08/22 07:12:35;;;;;;;30.50;19.37;;;;;;;;;;4357696;32;20802;-80
2021/08/22 07:15:05;;;;;;;31.35;18.05;;;;;;;;;;4357931;32;20209;-80
2021/08/22 07:17:36;;;;;;;27.80;16.10;;;;;;;;;;4345376;33;20557;-79
2021/08/22 07:20:04;;;;;;;23.58;15.35;;;;;;;;;;4358137;32;20614;-80
2021/08/22 07:22:44;;;;;;;24.85;15.32;;;;;;;;;;4346166;32;20144;-79
2021/08/22 07:25:12;;;;;;;25.27;14.55;;;;;;;;;;4357962;32;20156;-79
2021/08/22 07:27:38;;;;;;;22.45;14.87;;;;;;;;;;4357590;32;20242;-80
2021/08/22 07:30:07;;;;;;;24.98;13.95;;;;;;;;;;4357705;32;20155;-81
2021/08/22 07:32:34;;;;;;;23.12;14.15;;;;;;;;;;4357995;32;20274;-82
2021/08/22 07:35:14;;;;;;;23.10;14.82;;;;;;;;;;4346208;33;20124;-79
2021/08/22 07:37:41;;;;;;;23.92;14.15;;;;;;;;;;4357023;32;20567;-80
2021/08/22 07:40:07;;;;;;;20.12;13.05;;;;;;;;;;4357233;32;20155;-79
2021/08/22 07:42:32;;;;;;;24.20;14.82;;;;;;;;;;4356915;32;20495;-79
2021/08/22 07:45:00;;;;;;;26.73;15.05;;;;;;;;;;4356758;32;20159;-79
2021/08/22 07:47:26;;;;;;;28.15;15.90;;;;;;;;;;4356543;32;20171;-79
2021/08/22 07:49:51;;;;;;;20.73;14.68;;;;;;;;;;4357256;32;20197;-79
2021/08/22 07:52:16;;;;;;;26.58;15.88;;;;;;;;;;4356814;32;20182;-80
2021/08/22 07:54:42;;;;;;;22.92;16.40;;;;;;;;;;4357326;32;20190;-77
2021/08/22 07:57:12;;;;;;;25.77;16.25;;;;;;;;;;4344743;33;20159;-79
2021/08/22 07:59:48;;;;;;;26.55;16.73;;;;;;;;;;4357166;32;20159;-79
2021/08/22 08:02:18;;;;;;;26.25;16.42;;;;;;;;;;4356816;32;20147;-79
2021/08/22 08:04:43;;;;;;;23.60;16.50;;;;;;;;;;4357157;32;20160;-78
2021/08/22 08:07:19;;;;;;;29.92;17.98;;;;;;;;;;4344279;33;20460;-79
2021/08/22 08:09:44;;;;;;;26.55;16.25;;;;;;;;;;4345580;33;20155;-79
2021/08/22 08:12:09;;;;;;;28.38;15.70;;;;;;;;;;4356672;32;20614;-78
2021/08/22 08:14:37;;;;;;;22.67;14.82;;;;;;;;;;4357154;32;20198;-79
2021/08/22 08:17:03;;;;;;;21.23;15.18;;;;;;;;;;4345349;33;20151;-79
2021/08/22 08:19:40;;;;;;;19.37;14.55;;;;;;;;;;4356761;32;20152;-80
2021/08/22 08:22:07;;;;;;;20.02;14.80;;;;;;;;;;4356502;33;20198;-79
2021/08/22 08:24:32;;;;;;;23.05;13.98;;;;;;;;;;4356767;32;20156;-78
2021/08/22 08:27:00;;;;;;;21.50;13.57;;;;;;;;;;4356493;33;20155;-79
2021/08/22 08:29:25;;;;;;;22.67;13.73;;;;;;;;;;4346172;33;20261;-79
2021/08/22 08:31:51;;;;;;;17.70;13.40;;;;;;;;;;4344322;33;20148;-79
2021/08/22 08:34:18;;;;;;;18.15;13.00;;;;;;;;;;4356733;32;20159;-79
2021/08/22 08:36:46;;;;;;;16.73;12.10;;;;;;;;;;4345507;33;20161;-78
2021/08/22 08:39:13;;;;;;;16.73;12.60;;;;;;;;;;4356781;33;20163;-80
2021/08/22 08:41:38;;;;;;;18.27;12.95;;;;;;;;;;4344136;33;20178;-80
2021/08/22 08:44:04;;;;;;;22.55;14.30;;;;;;;;;;4356473;33;20608;-78
2021/08/22 08:46:37;;;;;;;18.25;11.98;;;;;;;;;;4347086;33;20193;-80
2021/08/22 08:49:20;;;;;;;17.48;11.98;;;;;;;;;;4350397;33;20623;-79
2021/08/22 08:51:51;;;;;;;21.00;13.82;;;;;;;;;;4362204;33;20186;-79
2021/08/22 08:54:22;;;;;;;18.45;12.25;;;;;;;;;;4362877;32;20496;-79
2021/08/22 08:56:48;;;;;;;18.02;11.82;;;;;;;;;;4349439;33;20155;-78
2021/08/22 08:59:13;;;;;;;19.17;12.82;;;;;;;;;;4361885;32;20237;-81
2021/08/22 09:01:42;;;;;;;19.33;13.05;;;;;;;;;;4361797;32;20205;-79
2021/08/22 09:04:16;;;;;;;17.50;12.85;;;;;;;;;;4361753;32;20297;-79
2021/08/22 09:07:00;;;;;;;18.80;14.98;;;;;;;;;;4349471;33;20166;-79
2021/08/22 09:09:26;;;;;;;21.12;14.98;;;;;;;;;;4361844;33;20464;-79
2021/08/22 09:12:24;;;;;;;22.85;16.08;;;;;;;;;;4362915;32;20163;-80
2021/08/22 09:15:08;;;;;;;22.23;15.20;;;;;;;;;;4349971;33;20151;-80
2021/08/22 09:18:00;;;;;;;18.67;14.77;;;;;;;;;;4361395;32;20163;-79
2021/08/22 09:20:48;;;;;;;16.27;11.80;;;;;;;;;;4361272;32;20265;-80
2021/08/22 09:23:29;;;;;;;17.15;11.55;;;;;;;;;;4359651;32;20282;-80
2021/08/22 09:26:13;;;;;;;17.02;12.45;;;;;;;;;;4349258;33;20197;-79
2021/08/22 09:29:05;;;;;;;16.48;11.98;;;;;;;;;;4360822;32;20155;-79
2021/08/22 09:31:49;;;;;;;14.87;11.45;;;;;;;;;;4361448;33;20152;-79
2021/08/22 09:34:33;;;;;;;15.75;11.00;;;;;;;;;;4361525;32;20589;-79
2021/08/22 09:37:30;;;;;;;14.50;10.75;;;;;;;;;;4362539;32;20158;-80
2021/08/22 09:40:15;;;;;;;12.40;9.23;;;;;;;;;;4362623;32;20173;-79
2021/08/22 09:43:02;;;;;;;11.68;8.65;;;;;;;;;;4361123;32;20159;-80
2021/08/22 09:45:47;;;;;;;13.32;8.65;;;;;;;;;;4362619;32;20186;-80
2021/08/22 09:48:34;;;;;;;12.37;9.63;;;;;;;;;;4361304;32;20167;-79
2021/08/22 09:51:18;;;;;;;12.43;9.48;;;;;;;;;;4360890;33;20212;-80
2021/08/22 09:54:03;;;;;;;15.10;9.90;;;;;;;;;;4361396;32;20179;-79
2021/08/22 09:56:47;;;;;;;14.25;10.05;;;;;;;;;;4361237;32;20185;-78
2021/08/22 09:59:36;;;;;;;14.50;8.43;;;;;;;;;;4360486;33;20159;-79
2021/08/22 10:02:36;;;;;;;12.93;9.13;;;;;;;;;;4361275;32;20265;-79
2021/08/22 10:05:20;;;;;;;14.90;8.52;;;;;;;;;;4360663;33;20542;-77
2021/08/22 10:08:01;;;;;;;11.18;8.45;;;;;;;;;;4360834;32;20240;-78
2021/08/22 10:10:36;;;;;;;13.62;10.10;;;;;;;;;;4348514;33;20197;-79
2021/08/22 10:13:01;;;;;;;14.05;9.50;;;;;;;;;;4360688;32;20155;-79
2021/08/22 10:15:29;;;;;;;14.75;9.45;;;;;;;;;;4362194;32;20158;-78
2021/08/22 10:17:56;;;;;;;12.18;10.50;;;;;;;;;;4360532;32;20167;-79
2021/08/22 10:20:38;;;;;;;16.83;11.20;;;;;;;;;;4360828;32;20577;-78
2021/08/22 10:23:04;;;;;;;15.20;11.27;;;;;;;;;;4348939;33;20169;-79
2021/08/22 10:25:49;;;;;;;12.10;8.50;;;;;;;;;;4361359;32;20159;-79
2021/08/22 10:28:14;;;;;;;10.27;6.85;;;;;;;;;;4360463;32;20175;-80
2021/08/22 10:30:51;;;;;;;15.00;7.68;;;;;;;;;;4349005;33;20155;-80
2021/08/22 10:33:18;;;;;;;20.48;10.55;;;;;;;;;;4360419;32;20229;-80
2021/08/22 10:35:49;;;;;;;15.52;9.50;;;;;;;;;;4360691;32;20524;-79
2021/08/22 10:38:25;;;;;;;12.57;8.20;;;;;;;;;;4348153;33;20190;-80
2021/08/22 10:40:51;;;;;;;11.12;6.82;;;;;;;;;;4360704;32;20158;-80
2021/08/22 10:43:38;;;;;;;15.15;6.35;;;;;;;;;;4360973;32;20212;-80
2021/08/22 10:46:09;;;;;;;16.05;6.28;;;;;;;;;;4360687;32;20214;-79
2021/08/22 10:48:35;;;;;;;21.15;6.30;;;;;;;;;;4358366;32;20261;-80
2021/08/22 10:51:09;;;;;;;10.07;4.50;;;;;;;;;;4345241;33;20155;-78
2021/08/22 10:53:35;;;;;;;5.45;3.17;;;;;;;;;;4357736;32;20155;-79
2021/08/22 10:56:19;;;;;;;7.10;3.25;;;;;;;;;;4358089;32;20644;-79
2021/08/22 10:59:43;;;;;;;7.40;3.25;;;;;;;;;;4357653;33;20185;-79
2021/08/22 11:01:49;;;;;;;6.30;3.15;;;;;;;;;;4348195;32;20201;-79
2021/08/22 11:04:23;;;;;;;6.12;3.28;;;;;;;;;;4346662;33;20273;-81
2021/08/22 11:07:15;;;;;;;4.50;2.40;;;;;;;;;;4357519;32;20147;-80
2021/08/22 11:09:46;;;;;;;4.20;2.47;;;;;;;;;;4343253;33;20163;-81
2021/08/22 11:12:21;;;;;;;3.53;2.53;;;;;;;;;;4357327;33;20171;-80
2021/08/22 11:14:48;;;;;;;4.93;2.30;;;;;;;;;;4346759;32;20123;-79
2021/08/22 11:17:16;;;;;;;3.22;2.60;;;;;;;;;;4346041;33;20304;-81
2021/08/22 11:19:41;;;;;;;4.15;2.58;;;;;;;;;;4357204;32;20222;-80
2021/08/22 11:22:29;;;;;;;4.40;2.97;;;;;;;;;;4357132;33;20190;-79
2021/08/22 11:25:01;;;;;;;6.30;2.80;;;;;;;;;;4345796;33;20183;-79
2021/08/22 11:27:30;;;;;;;2.55;2.00;;;;;;;;;;4345152;33;20214;-80
2021/08/22 11:30:00;;;;;;;3.12;2.20;;;;;;;;;;4356574;33;20194;-80
2021/08/22 11:32:27;;;;;;;4.65;2.20;;;;;;;;;;4357105;32;20444;-79
2021/08/22 11:34:52;;;;;;;3.90;2.00;;;;;;;;;;4344950;33;20163;-78
2021/08/22 11:37:20;;;;;;;3.22;1.83;;;;;;;;;;4356936;33;20182;-78
2021/08/22 11:39:57;;;;;;;4.15;2.72;;;;;;;;;;4357194;32;20648;-79
2021/08/22 11:42:24;;;;;;;2.80;2.20;;;;;;;;;;4356686;33;20182;-78
2021/08/22 11:45:07;;;;;;;3.20;2.15;;;;;;;;;;4357538;33;20151;-78
2021/08/22 11:47:32;;;;;;;4.00;2.40;;;;;;;;;;4357272;33;20163;-78
2021/08/22 11:49:57;;;;;;;3.47;2.20;;;;;;;;;;4357023;32;20147;-78
2021/08/22 11:52:23;;;;;;;3.12;2.40;;;;;;;;;;4356798;32;20178;-78
2021/08/22 11:54:48;;;;;;;4.10;2.53;;;;;;;;;;4357216;32;20148;-77
2021/08/22 11:57:19;;;;;;;3.37;2.47;;;;;;;;;;4357181;32;20163;-77
2021/08/22 11:59:56;;;;;;;4.57;3.30;;;;;;;;;;4356741;32;20156;-77
2021/08/22 12:02:25;;;;;;;5.45;3.00;;;;;;;;;;4344625;33;20205;-78
2021/08/22 12:05:09;;;;;;;5.90;3.45;;;;;;;;;;4356390;32;20178;-79
2021/08/22 12:07:35;;;;;;;5.37;3.00;;;;;;;;;;4356450;33;20159;-78
2021/08/22 12:10:00;;;;;;;5.72;3.33;;;;;;;;;;4357193;32;20604;-78
2021/08/22 12:12:26;;;;;;;4.40;3.72;;;;;;;;;;4344566;33;20183;-78
2021/08/22 12:14:51;;;;;;;6.05;4.22;;;;;;;;;;4356713;33;20175;-78
2021/08/22 12:17:21;;;;;;;7.90;4.10;;;;;;;;;;4356811;33;20182;-79
2021/08/22 12:19:46;;;;;;;6.70;4.50;;;;;;;;;;4344159;33;20537;-78
2021/08/22 12:22:14;;;;;;;7.15;4.20;;;;;;;;;;4344152;33;20246;-79
2021/08/22 12:24:46;;;;;;;9.15;4.78;;;;;;;;;;4357132;32;20151;-78
2021/08/22 12:27:27;;;;;;;9.50;5.12;;;;;;;;;;4356440;32;20156;-79
2021/08/22 12:30:25;;;;;;;9.45;4.78;;;;;;;;;;4356606;33;20178;-80
2021/08/22 12:32:59;;;;;;;8.40;5.03;;;;;;;;;;4316559;33;20238;-79
2021/08/22 12:35:25;;;;;;;6.78;4.90;;;;;;;;;;4316452;33;20155;-79
2021/08/22 12:37:53;;;;;;;11.10;7.15;;;;;;;;;;4316110;33;20160;-79
2021/08/22 12:40:22;;;;;;;9.13;6.87;;;;;;;;;;4316253;33;20152;-79
2021/08/22 12:42:50;;;;;;;8.80;7.45;;;;;;;;;;4331127;33;20209;-79
2021/08/22 12:45:18;;;;;;;6.65;5.55;;;;;;;;;;4357107;33;20217;-78
2021/08/22 12:47:47;;;;;;;8.63;4.68;;;;;;;;;;4356444;33;20205;-78
2021/08/22 12:50:14;;;;;;;6.37;4.47;;;;;;;;;;4344584;33;20175;-79
2021/08/22 12:52:42;;;;;;;9.15;5.18;;;;;;;;;;4356608;33;20214;-79
2021/08/22 12:55:07;;;;;;;6.62;4.47;;;;;;;;;;4356283;33;20163;-78
2021/08/22 12:57:46;;;;;;;;;;;;;;;;;;;;;
2021/08/22 13:00:12;;;;;;;4.72;3.95;;;;;;;;;;4345623;33;20480;-78
2021/08/22 13:02:37;;;;;;;6.72;5.22;;;;;;;;;;4355913;33;20186;-77
2021/08/22 13:05:02;;;;;;;6.87;5.45;;;;;;;;;;4356693;33;20483;-75
2021/08/22 13:07:27;;;;;;;6.78;5.00;;;;;;;;;;4356674;32;20226;-79
2021/08/22 13:09:54;;;;;;;7.32;5.55;;;;;;;;;;4356136;33;20171;-80
2021/08/22 13:12:19;;;;;;;7.05;4.75;;;;;;;;;;4344855;33;20143;-80
2021/08/22 13:14:44;;;;;;;7.57;5.18;;;;;;;;;;4356451;32;20228;-80
2021/08/22 13:17:10;;;;;;;5.35;4.10;;;;;;;;;;4356214;32;20197;-79
2021/08/22 13:19:35;;;;;;;7.78;6.82;;;;;;;;;;4356461;33;20248;-81
2021/08/22 13:22:00;;;;;;;8.63;6.30;;;;;;;;;;4355110;33;20172;-80
2021/08/22 13:24:25;;;;;;;12.20;6.10;;;;;;;;;;4355832;33;20313;-78
2021/08/22 13:26:51;;;;;;;8.07;5.72;;;;;;;;;;4355821;33;20282;-80
2021/08/22 13:29:16;;;;;;;7.80;5.12;;;;;;;;;;4356125;33;20167;-81
2021/08/22 13:31:41;;;;;;;8.93;6.20;;;;;;;;;;4355730;33;20179;-81
2021/08/22 13:34:07;;;;;;;6.30;3.72;;;;;;;;;;4358591;32;20166;-79
2021/08/22 13:36:35;;;;;;;6.50;4.80;;;;;;;;;;4358702;32;20489;-81
2021/08/22 13:39:00;;;;;;;8.07;6.25;;;;;;;;;;4346282;33;20194;-81
2021/08/22 13:41:25;;;;;;;10.90;8.03;;;;;;;;;;4358489;32;20167;-81
2021/08/22 13:43:51;;;;;;;11.48;7.60;;;;;;;;;;4358712;32;20740;-82
2021/08/22 13:46:16;;;;;;;10.18;7.95;;;;;;;;;;4358786;32;20623;-82
2021/08/22 13:48:41;;;;;;;11.75;7.57;;;;;;;;;;4358302;32;20175;-80
2021/08/22 13:51:07;;;;;;;5.45;4.10;;;;;;;;;;4358287;32;20171;-80
2021/08/22 13:53:32;;;;;;;5.35;2.92;;;;;;;;;;4358677;32;20213;-82
2021/08/22 13:55:57;;;;;;;4.37;2.97;;;;;;;;;;4358284;33;20190;-81
2021/08/22 13:58:22;;;;;;;3.25;2.53;;;;;;;;;;4359198;32;20188;-82
2021/08/22 14:00:48;;;;;;;2.65;2.37;;;;;;;;;;4358581;33;20171;-81
2021/08/22 14:03:13;;;;;;;4.53;2.37;;;;;;;;;;4358560;32;20194;-82
2021/08/22 14:05:38;;;;;;;2.37;1.90;;;;;;;;;;4358206;32;20259;-83
2021/08/22 14:08:04;;;;;;;2.28;2.08;;;;;;;;;;4358468;32;20163;-82
2021/08/22 14:10:29;;;;;;;2.62;2.10;;;;;;;;;;4358336;32;20212;-80
2021/08/22 14:12:55;;;;;;;3.80;2.15;;;;;;;;;;4358695;32;20656;-82
2021/08/22 14:15:20;;;;;;;3.35;2.00;;;;;;;;;;4358401;33;20156;-82
2021/08/22 14:17:45;;;;;;;3.00;2.30;;;;;;;;;;4358279;32;20191;-83
2021/08/22 14:20:11;;;;;;;2.30;1.92;;;;;;;;;;4358513;32;20168;-83
2021/08/22 14:22:36;;;;;;;2.95;2.10;;;;;;;;;;4358190;32;20190;-82
2021/08/22 14:25:03;;;;;;;3.78;2.40;;;;;;;;;;4334483;33;20533;-80
2021/08/22 14:27:28;;;;;;;3.03;2.33;;;;;;;;;;4358164;32;20163;-81
2021/08/22 14:29:54;;;;;;;2.92;1.98;;;;;;;;;;4357914;32;20239;-81
2021/08/22 14:32:29;;;;;;;2.92;2.08;;;;;;;;;;4358661;32;20581;-82
2021/08/22 14:34:57;;;;;;;2.50;1.85;;;;;;;;;;4358794;32;20558;-82
2021/08/22 14:37:22;;;;;;;3.45;2.80;;;;;;;;;;4357876;32;20163;-81
2021/08/22 14:39:50;;;;;;;4.03;2.50;;;;;;;;;;4357791;33;20593;-81
2021/08/22 14:42:16;;;;;;;3.47;1.90;;;;;;;;;;4358098;32;20622;-81
2021/08/22 14:44:41;;;;;;;3.00;2.20;;;;;;;;;;4358323;32;20163;-78
2021/08/22 14:47:06;;;;;;;1.90;1.70;;;;;;;;;;4358179;32;20554;-81
2021/08/22 14:49:31;;;;;;;3.65;1.80;;;;;;;;;;4357532;32;20190;-80
2021/08/22 14:52:05;;;;;;;3.22;2.00;;;;;;;;;;4357555;33;20167;-81
2021/08/22 14:54:33;;;;;;;2.42;1.70;;;;;;;;;;4357495;33;20155;-81
2021/08/22 14:56:59;;;;;;;3.25;2.03;;;;;;;;;;4357591;32;20211;-80
2021/08/22 14:59:24;;;;;;;2.03;1.42;;;;;;;;;;4358027;32;20189;-83
2021/08/22 15:01:49;;;;;;;2.75;1.83;;;;;;;;;;4357625;33;20237;-81
2021/08/22 15:04:15;;;;;;;2.55;1.60;;;;;;;;;;4357691;32;20282;-81
2021/08/22 15:06:43;;;;;;;1.62;1.42;;;;;;;;;;4357464;32;20159;-82
2021/08/22 15:09:08;;;;;;;2.62;1.80;;;;;;;;;;4357560;32;20159;-81
2021/08/22 15:11:34;;;;;;;2.58;1.60;;;;;;;;;;4345261;33;20209;-81
2021/08/22 15:14:05;;;;;;;1.73;1.48;;;;;;;;;;4346726;33;20135;-81
2021/08/22 15:16:51;;;;;;;1.62;1.40;;;;;;;;;;4357257;33;20164;-81
2021/08/22 15:19:16;;;;;;;2.40;1.75;;;;;;;;;;4346017;33;20278;-80
2021/08/22 15:21:41;;;;;;;2.60;1.75;;;;;;;;;;4345046;33;20167;-81
2021/08/22 15:24:08;;;;;;;2.08;1.60;;;;;;;;;;4356846;33;20563;-80
2021/08/22 15:26:34;;;;;;;2.40;1.50;;;;;;;;;;4357201;32;20182;-83
2021/08/22 15:28:59;;;;;;;3.17;1.30;;;;;;;;;;4357144;32;20163;-80